Accueil
METAR-TAF:

METAR-TAF

Aéroports :

Hayden, Colorado, États-Unis

latitude: 40-29N, longitude: 107-13W, altitude: 2012 m

METAR: absent

Heure: 07:43 (13:43 UTC)

Prévision

Le bulletin a été fait il y a 2 heures et 18 minutes, à 11:25 UTC
Prévision valable du 02 à 12 UTC au 03 à 12 UTC
Vent 6 kt de est/sud-est
Visibilité: 10 km
Nuages épars à une hauteur de 20000 ft
A partir de 02 à 1700 UTC
Vent 6 kt de ouest/nord-ouest
Visibilité: 10 km
Nuages épars à une hauteur de 25000 ft
A partir de 03 à 0200 UTC
Vent 5 kt de nord-ouest
Visibilité: 10 km
Nuages fragmentés à une hauteur de 18000 ft
A partir de 03 à 0700 UTC
Vent 10 kt de nord/nord-ouest
Visibilité: 10 km
Nuages épars à une hauteur de 25000 ft

TAF: KHDN 021125Z 0212/0312 11006KT P6SM SCT200 FM021700 30006KT P6SM SCT250 FM030200 31005KT P6SM BKN180 FM030700 34010KT P6SM SCT250

Observations et prévisions météorologiques de plus de 4000 aéroports (messages METAR et TAF).

Les stations disponibles sont représentées par des disques jaunes et rouges sur la carte.

Passer la souris dessus pour voir le nom de la station.

Cliquer dessus pour voir les observations et prévisions météorologiques.

Pour changer de carte: cliquez sur les boutons verts avec une croix noire pour zoomer, sur le bouton vert avec un tiret pour effectuer un zoom arrière, ou sur les flèches vertes pour les cartes adjacentes.


METAR-TAF: